createdAt,value
2023-03-27T10:54:09.968Z,20.64
2023-03-27T10:55:10.000Z,20.66
2023-03-27T10:56:10.027Z,20.67
2023-03-27T10:57:10.143Z,20.67
2023-03-27T10:58:10.060Z,20.69
2023-03-27T10:59:10.056Z,20.70
2023-03-27T11:00:10.048Z,20.72
2023-03-27T11:01:10.108Z,20.73
2023-03-27T11:02:10.082Z,20.76
2023-03-27T11:03:10.092Z,20.76
2023-03-27T11:04:10.045Z,20.79
2023-03-27T11:05:10.030Z,20.79
2023-03-27T11:06:09.952Z,20.79
2023-03-27T11:07:09.906Z,20.80
2023-03-27T11:08:09.864Z,20.84
2023-03-27T11:09:09.818Z,20.85
2023-03-27T11:10:09.780Z,20.88
2023-03-27T11:11:09.738Z,20.92
2023-03-27T11:12:09.686Z,20.94
2023-03-27T11:13:09.679Z,20.99
2023-03-27T11:14:09.657Z,21.07
2023-03-27T11:15:09.612Z,21.13
2023-03-27T11:16:09.556Z,21.19
2023-03-27T11:17:09.569Z,21.24
2023-03-27T11:18:09.502Z,21.28
2023-03-27T11:19:09.439Z,21.32
2023-03-27T11:20:09.384Z,21.34
2023-03-27T11:21:09.342Z,21.35
2023-03-27T11:22:09.298Z,21.37
2023-03-27T11:23:09.252Z,21.37
2023-03-27T11:24:09.189Z,21.40
2023-03-27T11:25:09.162Z,21.40
2023-03-27T11:26:09.100Z,21.38
2023-03-27T11:27:09.949Z,21.38
2023-03-27T11:28:09.018Z,21.40
2023-03-27T11:29:08.955Z,21.40
2023-03-27T11:30:08.889Z,21.40
2023-03-27T11:31:12.482Z,21.40
2023-03-27T11:32:08.803Z,21.42
2023-03-27T11:33:08.772Z,21.43
2023-03-27T11:34:08.698Z,21.43
2023-03-27T11:35:08.633Z,21.44
2023-03-27T11:36:08.588Z,21.43
2023-03-27T11:37:08.545Z,21.44
2023-03-27T11:38:08.488Z,21.43
2023-03-27T11:39:08.445Z,21.46
2023-03-27T11:40:08.366Z,21.46
2023-03-27T11:41:08.291Z,21.46
2023-03-27T11:42:08.228Z,21.46
2023-03-27T11:43:08.181Z,21.49
2023-03-27T11:44:08.113Z,21.50
2023-03-27T11:45:08.081Z,21.53
2023-03-27T11:46:08.113Z,21.53
2023-03-27T11:47:07.969Z,21.54
2023-03-27T11:49:07.883Z,21.58
2023-03-27T11:50:07.795Z,21.59
2023-03-27T11:51:07.727Z,21.58
2023-03-27T11:52:07.663Z,21.58
2023-03-27T11:53:07.647Z,21.56
2023-03-27T11:54:07.568Z,21.56
2023-03-27T11:55:07.579Z,21.59
2023-03-27T11:56:07.507Z,21.59
2023-03-27T11:57:07.455Z,21.62
2023-03-27T11:58:07.402Z,21.65
2023-03-27T11:59:07.345Z,21.67
2023-03-27T12:00:07.270Z,21.68
2023-03-27T12:01:07.198Z,21.68
2023-03-27T12:02:07.180Z,21.71
2023-03-27T12:03:07.156Z,21.72
2023-03-27T12:04:07.162Z,21.75
2023-03-27T12:05:06.994Z,21.80
2023-03-27T12:06:06.932Z,21.84
2023-03-27T12:07:08.277Z,21.90
2023-03-27T12:08:06.813Z,21.91
2023-03-27T12:09:06.786Z,21.94
2023-03-27T12:10:06.731Z,21.96
2023-03-27T12:11:06.649Z,21.98
2023-03-27T12:12:06.571Z,21.98
2023-03-27T12:13:06.546Z,21.98
2023-03-27T12:14:14.059Z,21.96
2023-03-27T12:15:07.438Z,21.96
2023-03-27T12:16:06.394Z,21.96
2023-03-27T12:17:06.287Z,21.94
2023-03-27T12:18:06.326Z,21.92
2023-03-27T12:19:13.890Z,21.92
2023-03-27T12:20:07.088Z,21.91
2023-03-27T12:21:06.064Z,21.90
2023-03-27T12:22:20.717Z,21.88
2023-03-27T12:23:06.929Z,21.90
2023-03-27T12:24:05.898Z,21.86
2023-03-27T12:25:05.847Z,21.84
2023-03-27T12:26:05.775Z,21.84
2023-03-27T12:27:05.754Z,21.84
2023-03-27T12:28:05.641Z,21.84
2023-03-27T12:29:23.375Z,21.86
2023-03-27T12:30:06.519Z,21.88
2023-03-27T12:31:05.464Z,21.86
2023-03-27T12:32:05.523Z,21.88
2023-03-27T12:33:05.531Z,21.90
2023-03-27T12:34:05.309Z,21.94
2023-03-27T12:35:05.269Z,21.98
2023-03-27T12:36:05.232Z,21.98
2023-03-27T12:37:05.145Z,22.00
2023-03-27T12:38:05.121Z,22.02
2023-03-27T12:39:05.048Z,22.02
2023-03-27T12:40:04.999Z,22.02
2023-03-27T12:41:04.945Z,22.02
2023-03-27T12:42:04.875Z,22.07
2023-03-27T12:43:04.817Z,22.09
2023-03-27T12:44:04.738Z,22.10
2023-03-27T12:45:04.706Z,22.12
2023-03-27T12:46:04.867Z,22.12
2023-03-27T12:47:05.120Z,22.12
2023-03-27T12:48:04.526Z,22.14
2023-03-27T12:49:04.460Z,22.12
2023-03-27T12:50:04.381Z,22.10
2023-03-27T12:51:04.313Z,22.12
2023-03-27T12:52:04.324Z,22.10
2023-03-27T12:53:04.212Z,22.07
2023-03-27T12:54:04.167Z,22.07
2023-03-27T12:55:04.142Z,22.07
2023-03-27T12:56:04.073Z,22.07
2023-03-27T12:57:04.098Z,22.07
2023-03-27T12:58:04.111Z,22.09
2023-03-27T12:59:05.594Z,22.12
2023-03-27T13:00:03.799Z,22.10
2023-03-27T13:01:03.760Z,22.10
2023-03-27T13:02:03.779Z,22.09
2023-03-27T13:03:03.664Z,22.09
2023-03-27T13:04:03.693Z,22.09
2023-03-27T13:05:08.678Z,22.07
2023-03-27T13:06:04.409Z,22.07
2023-03-27T13:07:03.364Z,22.05
2023-03-27T13:08:03.334Z,22.05
2023-03-27T13:09:03.243Z,22.03
2023-03-27T13:10:03.247Z,22.00
2023-03-27T13:11:03.161Z,22.00
2023-03-27T13:12:03.086Z,21.96
2023-03-27T13:13:03.059Z,21.94
2023-03-27T13:14:03.031Z,21.94
2023-03-27T13:15:02.992Z,21.92
2023-03-27T13:16:02.964Z,21.91
2023-03-27T13:17:02.869Z,21.90
2023-03-27T13:18:02.832Z,21.90
2023-03-27T13:19:02.742Z,21.88
2023-03-27T13:20:02.686Z,21.88
2023-03-27T13:21:02.649Z,21.88
2023-03-27T13:22:02.581Z,21.88
2023-03-27T13:23:02.507Z,21.88
2023-03-27T13:24:02.485Z,21.86
2023-03-27T13:25:02.409Z,21.84
